• Join FlightAware (Why Join?)
  • Login
  • US Flag 
07:29AM EDT


 

Airport Tracker/Info


-or-


 

Live Flight TrackerFlight Track Log ✈ JUS196 ✈ 10-Jul-2013 ✈ KSHV - KLRD

Flight Track Log - Related Links

Times and Time Zones

All times are in EDT time to prevent confusion due to time zone crossing. See the JUS196 flight status page for this flight to view local times or setup timezone preferences in your user account.

Time Position Orientation Groundspeed Altitude Reporting Facility
EDT Latitude Longitude Course Direction KTS MPH feet Rate Location/Type
01:59AM 32.4314 -93.8175 146° Southeast 153 176 1,200  Level Fort Worth Center
01:59AM 32.4078 -93.7986 146° Southeast 192 221 2,300 1,980 Climbing Fort Worth Center
02:00AM 32.3544 -93.8256 203° Southwest 204 235 4,300 2,100 Climbing Fort Worth Center
02:01AM 32.2950 -93.8669 210° Southwest 253 291 6,600 2,940 Climbing Fort Worth Center
02:02AM 32.2172 -93.9217 211° Southwest 295 339 10,200 3,240 Climbing Fort Worth Center
02:03AM 32.1583 -93.9803 220° Southwest 302 348 13,100 1,980 Climbing Fort Worth Center
02:06AM 31.9878 -94.1925 227° Southwest 401 461 17,000 1,980 Climbing Houston Center
02:07AM 31.9114 -94.2903 227° Southwest 405 466 19,800 2,400 Climbing Houston Center
02:08AM 31.8344 -94.3892 228° Southwest 406 467 21,900 1,920 Climbing Houston Center
02:09AM 31.7550 -94.4872 226° Southwest 412 474 23,700 1,500 Climbing Houston Center
02:10AM 31.6719 -94.5911 227° Southwest 430 495 25,000 1,320 Climbing Houston Center
02:11AM 31.5872 -94.6981 227° Southwest 444 511 26,400 1,380 Climbing Houston Center
02:12AM 31.5008 -94.8108 228° Southwest 461 531 27,800 1,500 Climbing Houston Center
02:13AM 31.4136 -94.9236 228° Southwest 473 544 29,500 1,560 Climbing Houston Center
02:14AM 31.3075 -95.0578 227° Southwest 475 547 31,000 1,260 Climbing Houston Center
02:15AM 31.2169 -95.1683 226° Southwest 476 548 32,100 840 Climbing Houston Center
02:16AM 31.1233 -95.2797 226° Southwest 481 554 32,700 720 Climbing Houston Center
02:17AM 31.0281 -95.3961 226° Southwest 496 571 33,600 600 Climbing Houston Center
02:18AM 30.9328 -95.5147 227° Southwest 500 575 34,000 180 Climbing Houston Center
02:19AM 30.8344 -95.6339 226° Southwest 509 586 34,000  Level Houston Center
02:20AM 30.7372 -95.7522 226° Southwest 508 585 34,000  Level Houston Center
02:21AM 30.6567 -95.8558 228° Southwest 504 580 34,000  Level Houston Center
02:22AM 30.5597 -95.9731 226° Southwest 506 582 34,000  Level Houston Center
02:23AM 30.4569 -96.0931 225° Southwest 502 578 34,000  Level Houston Center
02:24AM 30.3583 -96.2103 226° Southwest 501 577 34,000  Level Houston Center
02:25AM 30.2594 -96.3278 226° Southwest 502 578 34,000  Level Houston Center
02:26AM 30.1617 -96.4456 226° Southwest 501 577 34,000 -60 Level Houston Center
02:27AM 30.0611 -96.5678 226° Southwest 499 574 33,900  Descending Houston Center
02:28AM 29.9653 -96.6828 226° Southwest 499 574 34,000  Climbing Houston Center
02:29AM 29.8678 -96.7961 225° Southwest 500 575 34,000  Level Houston Center
02:30AM 29.7714 -96.9103 226° Southwest 501 577 34,000 -60 Level Houston Center
02:31AM 29.6750 -97.0242 226° Southwest 500 575 33,900  Descending Houston Center
02:32AM 29.5786 -97.1375 226° Southwest 502 578 34,000  Climbing Houston Center
02:33AM 29.4822 -97.2514 226° Southwest 502 578 33,900 -60 Descending Houston Center
02:34AM 29.3853 -97.3644 225° Southwest 502 578 33,900  Level Houston Center
02:35AM 29.2878 -97.4778 225° Southwest 503 579 33,900  Level Houston Center
02:36AM 29.1900 -97.5917 225° Southwest 504 580 33,900  Level Houston Center
02:37AM 29.0908 -97.7044 225° Southwest 503 579 33,900  Level Houston Center
02:38AM 28.9933 -97.8194 226° Southwest 505 581 34,000  Climbing Houston Center
02:39AM 28.8942 -97.9319 225° Southwest 505 581 34,000 -180 Level Houston Center
02:40AM 28.7958 -98.0453 225° Southwest 504 580 33,700 -600 Descending Houston Center
02:41AM 28.6989 -98.1600 226° Southwest 503 579 32,800 -1,380 Descending Houston Center
02:42AM 28.6042 -98.2650 224° Southwest 480 552 31,000 -2,400 Descending Houston Center
02:43AM 28.5150 -98.3661 225° Southwest 459 528 28,100 -3,000 Descending Houston Center
02:44AM 28.4214 -98.4733 225° Southwest 444 511 25,100 -2,760 Descending Houston Center
02:45AM 28.3386 -98.5658 225° Southwest 422 486 22,600 -2,520 Descending Houston Center
02:46AM 28.2597 -98.6544 225° Southwest 404 465 20,100 -2,460 Descending Houston Center
02:47AM 28.1758 -98.7456 224° Southwest 416 479 17,700 -1,980 Descending Houston Center
02:48AM 28.0922 -98.8414 225° Southwest 427 491 16,200 -1,740 Descending Houston Center
02:49AM 28.0144 -98.9339 226° Southwest 413 475 14,300 -2,280 Descending Houston Center
02:50AM 27.9408 -99.0167 225° Southwest 385 443 11,700 -1,920 Descending Houston Center
02:51AM 27.8764 -99.0922 226° Southwest 352 405 10,500 -1,440 Descending Houston Center
02:52AM 27.8192 -99.1542 224° Southwest 309 356 8,900 -1,860 Descending Houston Center
02:53AM 27.7614 -99.2181 224° Southwest 297 342 6,800 -1,680 Descending Houston Center
02:54AM 27.7078 -99.2808 226° Southwest 289 333 5,600 -1,440 Descending Houston Center
02:55AM 27.6700 -99.3481 238° Southwest 268 308 3,900 -1,740 Descending Houston Center